sensor_id;sensor_type;location;lat;lon;timestamp;P1;P2;P0
44312;PMS5003;38833;51.142;-0.974;2023-06-26T00:00:31;3;3;
44312;PMS5003;38833;51.142;-0.974;2023-06-26T00:03:04;2;2;
44312;PMS5003;38833;51.142;-0.974;2023-06-26T00:05:38;5;5;
44312;PMS5003;38833;51.142;-0.974;2023-06-26T00:08:11;6;4;
44312;PMS5003;38833;51.142;-0.974;2023-06-26T00:10:44;4;4;
44312;PMS5003;38833;51.142;-0.974;2023-06-26T00:13:17;3;3;
44312;PMS5003;38833;51.142;-0.974;2023-06-26T00:15:51;3;3;
44312;PMS5003;38833;51.142;-0.974;2023-06-26T00:18:24;4;3;
44312;PMS5003;38833;51.142;-0.974;2023-06-26T00:20:58;3;3;
44312;PMS5003;38833;51.142;-0.974;2023-06-26T00:23:31;3;3;
44312;PMS5003;38833;51.142;-0.974;2023-06-26T00:26:04;1;1;
44312;PMS5003;38833;51.142;-0.974;2023-06-26T00:28:38;3;3;
44312;PMS5003;38833;51.142;-0.974;2023-06-26T00:31:11;3;3;
44312;PMS5003;38833;51.142;-0.974;2023-06-26T00:33:44;5;3;
44312;PMS5003;38833;51.142;-0.974;2023-06-26T00:36:18;3;3;
44312;PMS5003;38833;51.142;-0.974;2023-06-26T00:38:51;5;3;
44312;PMS5003;38833;51.142;-0.974;2023-06-26T00:41:25;2;1;
44312;PMS5003;38833;51.142;-0.974;2023-06-26T00:43:59;3;3;
44312;PMS5003;38833;51.142;-0.974;2023-06-26T00:46:32;3;3;
44312;PMS5003;38833;51.142;-0.974;2023-06-26T00:49:05;5;4;
44312;PMS5003;38833;51.142;-0.974;2023-06-26T00:51:39;3;3;
44312;PMS5003;38833;51.142;-0.974;2023-06-26T00:54:13;3;3;
44312;PMS5003;38833;51.142;-0.974;2023-06-26T00:56:46;3;2;
44312;PMS5003;38833;51.142;-0.974;2023-06-26T00:59:20;3;3;
44312;PMS5003;38833;51.142;-0.974;2023-06-26T01:01:53;3;3;
44312;PMS5003;38833;51.142;-0.974;2023-06-26T01:04:27;3;3;
44312;PMS5003;38833;51.142;-0.974;2023-06-26T01:07:00;5;3;
44312;PMS5003;38833;51.142;-0.974;2023-06-26T01:09:35;2;2;
44312;PMS5003;38833;51.142;-0.974;2023-06-26T01:12:08;4;3;
44312;PMS5003;38833;51.142;-0.974;2023-06-26T01:14:41;3;3;
44312;PMS5003;38833;51.142;-0.974;2023-06-26T01:17:15;2;2;
44312;PMS5003;38833;51.142;-0.974;2023-06-26T01:19:48;5;4;
44312;PMS5003;38833;51.142;-0.974;2023-06-26T01:22:23;3;3;
44312;PMS5003;38833;51.142;-0.974;2023-06-26T01:25:06;6;4;
44312;PMS5003;38833;51.142;-0.974;2023-06-26T01:27:47;3;2;
44312;PMS5003;38833;51.142;-0.974;2023-06-26T01:30:22;4;4;
44312;PMS5003;38833;51.142;-0.974;2023-06-26T01:32:57;5;5;
44312;PMS5003;38833;51.142;-0.974;2023-06-26T01:35:31;6;4;
44312;PMS5003;38833;51.142;-0.974;2023-06-26T01:38:13;5;5;
44312;PMS5003;38833;51.142;-0.974;2023-06-26T01:40:47;3;3;
44312;PMS5003;38833;51.142;-0.974;2023-06-26T01:43:24;4;3;
44312;PMS5003;38833;51.142;-0.974;2023-06-26T01:46:01;5;4;
44312;PMS5003;38833;51.142;-0.974;2023-06-26T01:48:41;6;4;
44312;PMS5003;38833;51.142;-0.974;2023-06-26T01:51:22;3;3;
44312;PMS5003;38833;51.142;-0.974;2023-06-26T01:54:03;4;2;
44312;PMS5003;38833;51.142;-0.974;2023-06-26T01:56:41;5;5;
44312;PMS5003;38833;51.142;-0.974;2023-06-26T01:59:17;7;4;
44312;PMS5003;38833;51.142;-0.974;2023-06-26T02:01:53;5;5;
44312;PMS5003;38833;51.142;-0.974;2023-06-26T02:04:27;4;4;
44312;PMS5003;38833;51.142;-0.974;2023-06-26T02:07:00;6;4;
44312;PMS5003;38833;51.142;-0.974;2023-06-26T02:09:33;6;6;
44312;PMS5003;38833;51.142;-0.974;2023-06-26T02:12:07;8;5;
44312;PMS5003;38833;51.142;-0.974;2023-06-26T02:14:40;5;5;
44312;PMS5003;38833;51.142;-0.974;2023-06-26T02:17:14;5;5;
44312;PMS5003;38833;51.142;-0.974;2023-06-26T02:19:47;6;5;
44312;PMS5003;38833;51.142;-0.974;2023-06-26T02:22:21;4;3;
44312;PMS5003;38833;51.142;-0.974;2023-06-26T02:24:54;4;4;
44312;PMS5003;38833;51.142;-0.974;2023-06-26T02:27:28;8;7;
44312;PMS5003;38833;51.142;-0.974;2023-06-26T02:30:01;4;4;
44312;PMS5003;38833;51.142;-0.974;2023-06-26T02:32:35;3;3;
44312;PMS5003;38833;51.142;-0.974;2023-06-26T02:35:08;7;6;
44312;PMS5003;38833;51.142;-0.974;2023-06-26T02:37:42;7;6;
44312;PMS5003;38833;51.142;-0.974;2023-06-26T02:40:16;10;4;
44312;PMS5003;38833;51.142;-0.974;2023-06-26T02:42:49;5;4;
44312;PMS5003;38833;51.142;-0.974;2023-06-26T02:45:22;5;4;
44312;PMS5003;38833;51.142;-0.974;2023-06-26T02:47:56;4;3;
44312;PMS5003;38833;51.142;-0.974;2023-06-26T02:50:29;6;6;
44312;PMS5003;38833;51.142;-0.974;2023-06-26T02:53:02;3;3;
44312;PMS5003;38833;51.142;-0.974;2023-06-26T02:55:36;6;4;
44312;PMS5003;38833;51.142;-0.974;2023-06-26T02:58:09;3;3;
44312;PMS5003;38833;51.142;-0.974;2023-06-26T03:00:43;7;5;
44312;PMS5003;38833;51.142;-0.974;2023-06-26T03:03:17;6;4;
44312;PMS5003;38833;51.142;-0.974;2023-06-26T03:05:50;5;4;
44312;PMS5003;38833;51.142;-0.974;2023-06-26T03:08:23;5;4;
44312;PMS5003;38833;51.142;-0.974;2023-06-26T03:10:57;3;3;
44312;PMS5003;38833;51.142;-0.974;2023-06-26T03:13:30;5;5;
44312;PMS5003;38833;51.142;-0.974;2023-06-26T03:16:04;6;5;
44312;PMS5003;38833;51.142;-0.974;2023-06-26T03:18:38;5;5;
44312;PMS5003;38833;51.142;-0.974;2023-06-26T03:21:11;6;5;
44312;PMS5003;38833;51.142;-0.974;2023-06-26T03:23:45;6;5;
44312;PMS5003;38833;51.142;-0.974;2023-06-26T03:26:18;4;4;
44312;PMS5003;38833;51.142;-0.974;2023-06-26T03:28:52;6;4;
44312;PMS5003;38833;51.142;-0.974;2023-06-26T03:31:25;8;7;
44312;PMS5003;38833;51.142;-0.974;2023-06-26T03:33:58;7;5;
44312;PMS5003;38833;51.142;-0.974;2023-06-26T03:36:31;5;5;
44312;PMS5003;38833;51.142;-0.974;2023-06-26T03:39:05;4;4;
44312;PMS5003;38833;51.142;-0.974;2023-06-26T03:41:38;5;5;
44312;PMS5003;38833;51.142;-0.974;2023-06-26T03:44:12;5;4;
44312;PMS5003;38833;51.142;-0.974;2023-06-26T03:46:45;7;4;
44312;PMS5003;38833;51.142;-0.974;2023-06-26T03:49:19;4;4;
44312;PMS5003;38833;51.142;-0.974;2023-06-26T03:51:52;6;5;
44312;PMS5003;38833;51.142;-0.974;2023-06-26T03:54:26;2;2;
44312;PMS5003;38833;51.142;-0.974;2023-06-26T03:56:59;5;5;
44312;PMS5003;38833;51.142;-0.974;2023-06-26T03:59:32;4;4;
44312;PMS5003;38833;51.142;-0.974;2023-06-26T04:02:42;4;4;
44312;PMS5003;38833;51.142;-0.974;2023-06-26T04:05:16;5;4;
44312;PMS5003;38833;51.142;-0.974;2023-06-26T04:07:49;8;6;
44312;PMS5003;38833;51.142;-0.974;2023-06-26T04:10:23;7;6;
44312;PMS5003;38833;51.142;-0.974;2023-06-26T04:12:56;5;5;
44312;PMS5003;38833;51.142;-0.974;2023-06-26T04:15:29;4;4;
44312;PMS5003;38833;51.142;-0.974;2023-06-26T04:18:03;5;5;
44312;PMS5003;38833;51.142;-0.974;2023-06-26T04:20:38;5;5;
44312;PMS5003;38833;51.142;-0.974;2023-06-26T04:23:13;4;4;
44312;PMS5003;38833;51.142;-0.974;2023-06-26T04:25:46;5;5;
44312;PMS5003;38833;51.142;-0.974;2023-06-26T04:28:20;5;4;
44312;PMS5003;38833;51.142;-0.974;2023-06-26T04:30:53;8;6;
44312;PMS5003;38833;51.142;-0.974;2023-06-26T04:33:27;4;4;
44312;PMS5003;38833;51.142;-0.974;2023-06-26T04:36:00;4;3;
44312;PMS5003;38833;51.142;-0.974;2023-06-26T04:38:33;7;7;
44312;PMS5003;38833;51.142;-0.974;2023-06-26T04:41:07;6;5;
44312;PMS5003;38833;51.142;-0.974;2023-06-26T04:43:40;4;4;
44312;PMS5003;38833;51.142;-0.974;2023-06-26T04:46:14;4;3;
44312;PMS5003;38833;51.142;-0.974;2023-06-26T04:48:47;4;4;
44312;PMS5003;38833;51.142;-0.974;2023-06-26T04:51:21;5;4;
44312;PMS5003;38833;51.142;-0.974;2023-06-26T04:53:54;6;5;
44312;PMS5003;38833;51.142;-0.974;2023-06-26T04:56:28;4;4;
44312;PMS5003;38833;51.142;-0.974;2023-06-26T04:59:01;6;5;
44312;PMS5003;38833;51.142;-0.974;2023-06-26T05:01:35;5;5;
44312;PMS5003;38833;51.142;-0.974;2023-06-26T05:04:08;5;5;
44312;PMS5003;38833;51.142;-0.974;2023-06-26T05:06:42;4;4;
44312;PMS5003;38833;51.142;-0.974;2023-06-26T05:09:15;4;4;
44312;PMS5003;38833;51.142;-0.974;2023-06-26T05:11:48;5;5;
44312;PMS5003;38833;51.142;-0.974;2023-06-26T05:14:22;5;5;
44312;PMS5003;38833;51.142;-0.974;2023-06-26T05:16:55;4;4;
44312;PMS5003;38833;51.142;-0.974;2023-06-26T05:19:28;5;5;
44312;PMS5003;38833;51.142;-0.974;2023-06-26T05:22:02;4;4;
44312;PMS5003;38833;51.142;-0.974;2023-06-26T05:24:37;6;6;
44312;PMS5003;38833;51.142;-0.974;2023-06-26T05:27:11;7;5;
44312;PMS5003;38833;51.142;-0.974;2023-06-26T05:29:45;7;4;
44312;PMS5003;38833;51.142;-0.974;2023-06-26T05:32:20;7;5;
44312;PMS5003;38833;51.142;-0.974;2023-06-26T05:34:54;7;5;
44312;PMS5003;38833;51.142;-0.974;2023-06-26T05:37:28;7;6;
44312;PMS5003;38833;51.142;-0.974;2023-06-26T05:40:02;5;4;
44312;PMS5003;38833;51.142;-0.974;2023-06-26T05:42:36;6;6;
44312;PMS5003;38833;51.142;-0.974;2023-06-26T05:45:10;4;4;
44312;PMS5003;38833;51.142;-0.974;2023-06-26T05:47:43;9;4;
44312;PMS5003;38833;51.142;-0.974;2023-06-26T05:50:17;7;5;
44312;PMS5003;38833;51.142;-0.974;2023-06-26T05:52:51;4;4;
44312;PMS5003;38833;51.142;-0.974;2023-06-26T05:55:25;5;5;
44312;PMS5003;38833;51.142;-0.974;2023-06-26T05:58:00;6;4;
44312;PMS5003;38833;51.142;-0.974;2023-06-26T06:00:34;4;4;
44312;PMS5003;38833;51.142;-0.974;2023-06-26T06:03:09;4;4;
44312;PMS5003;38833;51.142;-0.974;2023-06-26T06:05:42;4;4;
44312;PMS5003;38833;51.142;-0.974;2023-06-26T06:08:16;4;4;
44312;PMS5003;38833;51.142;-0.974;2023-06-26T06:10:49;4;4;
44312;PMS5003;38833;51.142;-0.974;2023-06-26T06:13:23;6;6;
44312;PMS5003;38833;51.142;-0.974;2023-06-26T06:15:56;6;5;
44312;PMS5003;38833;51.142;-0.974;2023-06-26T06:18:30;5;5;
44312;PMS5003;38833;51.142;-0.974;2023-06-26T06:21:03;4;4;
44312;PMS5003;38833;51.142;-0.974;2023-06-26T06:23:36;5;5;
44312;PMS5003;38833;51.142;-0.974;2023-06-26T06:26:09;4;4;
44312;PMS5003;38833;51.142;-0.974;2023-06-26T06:28:43;6;6;
44312;PMS5003;38833;51.142;-0.974;2023-06-26T06:31:16;7;5;
44312;PMS5003;38833;51.142;-0.974;2023-06-26T06:33:50;14;4;
44312;PMS5003;38833;51.142;-0.974;2023-06-26T06:36:23;4;4;
44312;PMS5003;38833;51.142;-0.974;2023-06-26T06:38:56;5;5;
44312;PMS5003;38833;51.142;-0.974;2023-06-26T06:41:30;5;5;
44312;PMS5003;38833;51.142;-0.974;2023-06-26T06:44:03;5;5;
44312;PMS5003;38833;51.142;-0.974;2023-06-26T06:46:36;5;5;
44312;PMS5003;38833;51.142;-0.974;2023-06-26T06:49:10;5;5;
44312;PMS5003;38833;51.142;-0.974;2023-06-26T06:51:43;6;5;
44312;PMS5003;38833;51.142;-0.974;2023-06-26T06:54:17;8;7;
44312;PMS5003;38833;51.142;-0.974;2023-06-26T06:56:50;5;5;
44312;PMS5003;38833;51.142;-0.974;2023-06-26T06:59:23;5;5;
44312;PMS5003;38833;51.142;-0.974;2023-06-26T07:01:56;6;5;
44312;PMS5003;38833;51.142;-0.974;2023-06-26T07:04:30;4;4;
44312;PMS5003;38833;51.142;-0.974;2023-06-26T07:07:03;5;5;
44312;PMS5003;38833;51.142;-0.974;2023-06-26T07:09:37;7;7;
44312;PMS5003;38833;51.142;-0.974;2023-06-26T07:12:10;6;6;
44312;PMS5003;38833;51.142;-0.974;2023-06-26T07:14:44;5;3;
44312;PMS5003;38833;51.142;-0.974;2023-06-26T07:17:17;4;4;
44312;PMS5003;38833;51.142;-0.974;2023-06-26T07:19:50;7;5;
44312;PMS5003;38833;51.142;-0.974;2023-06-26T07:22:23;3;3;
44312;PMS5003;38833;51.142;-0.974;2023-06-26T07:24:57;7;5;
44312;PMS5003;38833;51.142;-0.974;2023-06-26T07:27:30;5;5;
44312;PMS5003;38833;51.142;-0.974;2023-06-26T07:30:04;5;5;
44312;PMS5003;38833;51.142;-0.974;2023-06-26T07:32:38;6;6;
44312;PMS5003;38833;51.142;-0.974;2023-06-26T07:35:11;6;5;
44312;PMS5003;38833;51.142;-0.974;2023-06-26T07:37:45;6;4;
44312;PMS5003;38833;51.142;-0.974;2023-06-26T07:40:18;5;4;
44312;PMS5003;38833;51.142;-0.974;2023-06-26T07:42:52;6;6;
44312;PMS5003;38833;51.142;-0.974;2023-06-26T07:45:25;6;4;
44312;PMS5003;38833;51.142;-0.974;2023-06-26T07:47:58;5;5;
44312;PMS5003;38833;51.142;-0.974;2023-06-26T07:50:32;6;5;
44312;PMS5003;38833;51.142;-0.974;2023-06-26T07:53:05;6;5;
44312;PMS5003;38833;51.142;-0.974;2023-06-26T07:55:38;5;5;
44312;PMS5003;38833;51.142;-0.974;2023-06-26T07:58:12;5;5;
44312;PMS5003;38833;51.142;-0.974;2023-06-26T08:00:45;8;7;
44312;PMS5003;38833;51.142;-0.974;2023-06-26T08:03:18;4;4;
44312;PMS5003;38833;51.142;-0.974;2023-06-26T08:05:52;7;6;
44312;PMS5003;38833;51.142;-0.974;2023-06-26T08:08:25;6;5;
44312;PMS5003;38833;51.142;-0.974;2023-06-26T08:10:58;5;5;
44312;PMS5003;38833;51.142;-0.974;2023-06-26T08:13:31;5;5;
44312;PMS5003;38833;51.142;-0.974;2023-06-26T08:16:05;9;7;
44312;PMS5003;38833;51.142;-0.974;2023-06-26T08:18:38;8;6;
44312;PMS5003;38833;51.142;-0.974;2023-06-26T08:21:12;6;6;
44312;PMS5003;38833;51.142;-0.974;2023-06-26T08:23:45;4;4;
44312;PMS5003;38833;51.142;-0.974;2023-06-26T08:26:19;8;8;
44312;PMS5003;38833;51.142;-0.974;2023-06-26T08:28:52;5;5;
44312;PMS5003;38833;51.142;-0.974;2023-06-26T08:31:26;6;5;
44312;PMS5003;38833;51.142;-0.974;2023-06-26T08:33:59;7;6;
44312;PMS5003;38833;51.142;-0.974;2023-06-26T08:36:32;7;5;
44312;PMS5003;38833;51.142;-0.974;2023-06-26T08:39:06;5;5;
44312;PMS5003;38833;51.142;-0.974;2023-06-26T08:41:39;8;7;
44312;PMS5003;38833;51.142;-0.974;2023-06-26T08:44:12;7;6;
44312;PMS5003;38833;51.142;-0.974;2023-06-26T08:46:46;7;7;
44312;PMS5003;38833;51.142;-0.974;2023-06-26T08:49:20;5;5;
44312;PMS5003;38833;51.142;-0.974;2023-06-26T08:51:59;10;6;
44312;PMS5003;38833;51.142;-0.974;2023-06-26T08:54:39;7;7;
44312;PMS5003;38833;51.142;-0.974;2023-06-26T08:57:18;7;6;
44312;PMS5003;38833;51.142;-0.974;2023-06-26T08:59:53;5;5;
44312;PMS5003;38833;51.142;-0.974;2023-06-26T09:02:26;8;7;
44312;PMS5003;38833;51.142;-0.974;2023-06-26T09:05:01;12;12;
44312;PMS5003;38833;51.142;-0.974;2023-06-26T09:07:35;14;14;
44312;PMS5003;38833;51.142;-0.974;2023-06-26T09:10:08;9;9;
44312;PMS5003;38833;51.142;-0.974;2023-06-26T09:12:45;23;23;
44312;PMS5003;38833;51.142;-0.974;2023-06-26T09:15:19;18;17;
44312;PMS5003;38833;51.142;-0.974;2023-06-26T09:17:53;20;16;
44312;PMS5003;38833;51.142;-0.974;2023-06-26T09:20:29;15;13;
44312;PMS5003;38833;51.142;-0.974;2023-06-26T09:23:03;7;6;
44312;PMS5003;38833;51.142;-0.974;2023-06-26T09:25:38;4;4;
44312;PMS5003;38833;51.142;-0.974;2023-06-26T09:28:12;2;2;
44312;PMS5003;38833;51.142;-0.974;2023-06-26T09:30:46;6;6;
44312;PMS5003;38833;51.142;-0.974;2023-06-26T09:33:19;6;5;
44312;PMS5003;38833;51.142;-0.974;2023-06-26T09:35:53;8;8;
44312;PMS5003;38833;51.142;-0.974;2023-06-26T09:38:27;5;5;
44312;PMS5003;38833;51.142;-0.974;2023-06-26T09:41:00;8;6;
44312;PMS5003;38833;51.142;-0.974;2023-06-26T09:43:34;6;5;
44312;PMS5003;38833;51.142;-0.974;2023-06-26T09:46:21;9;8;
44312;PMS5003;38833;51.142;-0.974;2023-06-26T09:48:59;5;5;
44312;PMS5003;38833;51.142;-0.974;2023-06-26T09:51:35;7;6;
44312;PMS5003;38833;51.142;-0.974;2023-06-26T09:54:09;7;7;
44312;PMS5003;38833;51.142;-0.974;2023-06-26T09:56:42;8;6;
44312;PMS5003;38833;51.142;-0.974;2023-06-26T09:59:16;5;5;
44312;PMS5003;38833;51.142;-0.974;2023-06-26T10:01:50;6;5;
44312;PMS5003;38833;51.142;-0.974;2023-06-26T10:04:32;7;6;
44312;PMS5003;38833;51.142;-0.974;2023-06-26T10:07:08;6;6;
44312;PMS5003;38833;51.142;-0.974;2023-06-26T10:09:44;7;6;
44312;PMS5003;38833;51.142;-0.974;2023-06-26T10:12:20;6;6;
44312;PMS5003;38833;51.142;-0.974;2023-06-26T10:14:59;7;6;
44312;PMS5003;38833;51.142;-0.974;2023-06-26T10:17:35;7;7;
44312;PMS5003;38833;51.142;-0.974;2023-06-26T10:20:11;7;7;
44312;PMS5003;38833;51.142;-0.974;2023-06-26T10:22:47;8;8;
44312;PMS5003;38833;51.142;-0.974;2023-06-26T10:25:21;5;5;
44312;PMS5003;38833;51.142;-0.974;2023-06-26T10:27:58;8;6;
44312;PMS5003;38833;51.142;-0.974;2023-06-26T10:30:35;8;6;
44312;PMS5003;38833;51.142;-0.974;2023-06-26T10:33:09;7;7;
44312;PMS5003;38833;51.142;-0.974;2023-06-26T10:35:43;6;6;
44312;PMS5003;38833;51.142;-0.974;2023-06-26T10:38:18;10;9;
44312;PMS5003;38833;51.142;-0.974;2023-06-26T10:40:51;4;4;
44312;PMS5003;38833;51.142;-0.974;2023-06-26T10:43:29;7;6;
44312;PMS5003;38833;51.142;-0.974;2023-06-26T10:46:02;6;6;
44312;PMS5003;38833;51.142;-0.974;2023-06-26T10:48:44;6;6;
44312;PMS5003;38833;51.142;-0.974;2023-06-26T10:51:29;6;4;
44312;PMS5003;38833;51.142;-0.974;2023-06-26T10:54:03;5;5;
44312;PMS5003;38833;51.142;-0.974;2023-06-26T10:56:45;6;6;
44312;PMS5003;38833;51.142;-0.974;2023-06-26T10:59:19;6;6;
44312;PMS5003;38833;51.142;-0.974;2023-06-26T11:01:54;8;8;
44312;PMS5003;38833;51.142;-0.974;2023-06-26T11:04:37;7;5;
44312;PMS5003;38833;51.142;-0.974;2023-06-26T11:07:14;6;6;
44312;PMS5003;38833;51.142;-0.974;2023-06-26T11:09:56;6;5;
44312;PMS5003;38833;51.142;-0.974;2023-06-26T11:12:36;4;4;
44312;PMS5003;38833;51.142;-0.974;2023-06-26T11:15:10;6;6;
44312;PMS5003;38833;51.142;-0.974;2023-06-26T11:17:45;7;6;
44312;PMS5003;38833;51.142;-0.974;2023-06-26T11:20:20;6;6;
44312;PMS5003;38833;51.142;-0.974;2023-06-26T11:22:53;5;5;
44312;PMS5003;38833;51.142;-0.974;2023-06-26T11:25:29;6;5;
44312;PMS5003;38833;51.142;-0.974;2023-06-26T11:28:03;19;13;
44312;PMS5003;38833;51.142;-0.974;2023-06-26T11:30:37;28;28;
44312;PMS5003;38833;51.142;-0.974;2023-06-26T11:33:10;25;25;
44312;PMS5003;38833;51.142;-0.974;2023-06-26T11:35:44;25;25;
44312;PMS5003;38833;51.142;-0.974;2023-06-26T11:38:17;22;22;
44312;PMS5003;38833;51.142;-0.974;2023-06-26T11:40:50;19;19;
44312;PMS5003;38833;51.142;-0.974;2023-06-26T11:43:24;15;11;
44312;PMS5003;38833;51.142;-0.974;2023-06-26T11:45:57;7;7;
44312;PMS5003;38833;51.142;-0.974;2023-06-26T11:48:30;7;7;
44312;PMS5003;38833;51.142;-0.974;2023-06-26T11:51:04;11;8;
44312;PMS5003;38833;51.142;-0.974;2023-06-26T11:53:39;8;8;
44312;PMS5003;38833;51.142;-0.974;2023-06-26T11:56:14;11;10;
44312;PMS5003;38833;51.142;-0.974;2023-06-26T11:58:56;11;8;
44312;PMS5003;38833;51.142;-0.974;2023-06-26T12:01:31;8;7;
44312;PMS5003;38833;51.142;-0.974;2023-06-26T12:04:06;6;6;
44312;PMS5003;38833;51.142;-0.974;2023-06-26T12:06:42;10;7;
44312;PMS5003;38833;51.142;-0.974;2023-06-26T12:09:18;7;6;
44312;PMS5003;38833;51.142;-0.974;2023-06-26T12:11:53;6;5;
44312;PMS5003;38833;51.142;-0.974;2023-06-26T12:14:28;8;5;
44312;PMS5003;38833;51.142;-0.974;2023-06-26T12:17:04;4;4;
44312;PMS5003;38833;51.142;-0.974;2023-06-26T12:19:39;5;5;
44312;PMS5003;38833;51.142;-0.974;2023-06-26T12:22:16;5;5;
44312;PMS5003;38833;51.142;-0.974;2023-06-26T12:24:50;6;6;
44312;PMS5003;38833;51.142;-0.974;2023-06-26T12:27:23;6;6;
44312;PMS5003;38833;51.142;-0.974;2023-06-26T12:29:58;4;4;
44312;PMS5003;38833;51.142;-0.974;2023-06-26T12:32:31;8;5;
44312;PMS5003;38833;51.142;-0.974;2023-06-26T12:35:04;8;6;
44312;PMS5003;38833;51.142;-0.974;2023-06-26T12:37:39;7;6;
44312;PMS5003;38833;51.142;-0.974;2023-06-26T12:40:19;4;4;
44312;PMS5003;38833;51.142;-0.974;2023-06-26T12:42:53;4;4;
44312;PMS5003;38833;51.142;-0.974;2023-06-26T12:45:28;4;4;
44312;PMS5003;38833;51.142;-0.974;2023-06-26T12:48:10;6;6;
44312;PMS5003;38833;51.142;-0.974;2023-06-26T12:50:45;5;5;
44312;PMS5003;38833;51.142;-0.974;2023-06-26T12:53:18;5;4;
44312;PMS5003;38833;51.142;-0.974;2023-06-26T12:55:52;5;5;
44312;PMS5003;38833;51.142;-0.974;2023-06-26T12:58:25;8;6;
44312;PMS5003;38833;51.142;-0.974;2023-06-26T13:00:59;5;4;
44312;PMS5003;38833;51.142;-0.974;2023-06-26T13:03:32;3;3;
44312;PMS5003;38833;51.142;-0.974;2023-06-26T13:06:06;5;5;
44312;PMS5003;38833;51.142;-0.974;2023-06-26T13:08:39;3;3;
44312;PMS5003;38833;51.142;-0.974;2023-06-26T13:11:12;5;5;
44312;PMS5003;38833;51.142;-0.974;2023-06-26T13:13:46;5;5;
44312;PMS5003;38833;51.142;-0.974;2023-06-26T13:16:19;8;7;
44312;PMS5003;38833;51.142;-0.974;2023-06-26T13:18:52;5;5;
44312;PMS5003;38833;51.142;-0.974;2023-06-26T13:21:26;5;4;
44312;PMS5003;38833;51.142;-0.974;2023-06-26T13:23:59;5;5;
44312;PMS5003;38833;51.142;-0.974;2023-06-26T13:26:33;4;4;
44312;PMS5003;38833;51.142;-0.974;2023-06-26T13:29:07;4;4;
44312;PMS5003;38833;51.142;-0.974;2023-06-26T13:31:40;4;4;
44312;PMS5003;38833;51.142;-0.974;2023-06-26T13:34:19;4;4;
44312;PMS5003;38833;51.142;-0.974;2023-06-26T13:36:54;5;5;
44312;PMS5003;38833;51.142;-0.974;2023-06-26T13:39:27;5;4;
44312;PMS5003;38833;51.142;-0.974;2023-06-26T13:42:00;6;6;
44312;PMS5003;38833;51.142;-0.974;2023-06-26T13:44:35;4;4;
44312;PMS5003;38833;51.142;-0.974;2023-06-26T13:47:09;5;5;
44312;PMS5003;38833;51.142;-0.974;2023-06-26T13:49:45;4;4;
44312;PMS5003;38833;51.142;-0.974;2023-06-26T13:52:18;4;4;
44312;PMS5003;38833;51.142;-0.974;2023-06-26T13:54:52;4;3;
44312;PMS5003;38833;51.142;-0.974;2023-06-26T13:57:25;6;5;
44312;PMS5003;38833;51.142;-0.974;2023-06-26T13:59:58;7;7;
44312;PMS5003;38833;51.142;-0.974;2023-06-26T14:02:32;6;6;
44312;PMS5003;38833;51.142;-0.974;2023-06-26T14:05:05;6;4;
44312;PMS5003;38833;51.142;-0.974;2023-06-26T14:07:39;3;3;
44312;PMS5003;38833;51.142;-0.974;2023-06-26T14:10:12;3;3;
44312;PMS5003;38833;51.142;-0.974;2023-06-26T14:12:45;4;4;
44312;PMS5003;38833;51.142;-0.974;2023-06-26T14:15:19;5;4;
44312;PMS5003;38833;51.142;-0.974;2023-06-26T14:17:52;4;2;
44312;PMS5003;38833;51.142;-0.974;2023-06-26T14:20:26;6;5;
44312;PMS5003;38833;51.142;-0.974;2023-06-26T14:22:59;4;4;
44312;PMS5003;38833;51.142;-0.974;2023-06-26T14:25:32;3;3;
44312;PMS5003;38833;51.142;-0.974;2023-06-26T14:28:06;5;5;
44312;PMS5003;38833;51.142;-0.974;2023-06-26T14:30:39;4;4;
44312;PMS5003;38833;51.142;-0.974;2023-06-26T14:33:12;4;2;
44312;PMS5003;38833;51.142;-0.974;2023-06-26T14:35:46;4;4;
44312;PMS5003;38833;51.142;-0.974;2023-06-26T14:38:19;7;5;
44312;PMS5003;38833;51.142;-0.974;2023-06-26T14:40:52;4;3;
44312;PMS5003;38833;51.142;-0.974;2023-06-26T14:43:26;3;3;
44312;PMS5003;38833;51.142;-0.974;2023-06-26T14:45:59;4;4;
44312;PMS5003;38833;51.142;-0.974;2023-06-26T14:48:32;4;3;
44312;PMS5003;38833;51.142;-0.974;2023-06-26T14:51:06;4;4;
44312;PMS5003;38833;51.142;-0.974;2023-06-26T14:53:39;5;5;
44312;PMS5003;38833;51.142;-0.974;2023-06-26T14:56:13;5;4;
44312;PMS5003;38833;51.142;-0.974;2023-06-26T14:58:46;7;6;
44312;PMS5003;38833;51.142;-0.974;2023-06-26T15:01:20;4;4;
44312;PMS5003;38833;51.142;-0.974;2023-06-26T15:03:53;4;4;
44312;PMS5003;38833;51.142;-0.974;2023-06-26T15:06:26;5;5;
44312;PMS5003;38833;51.142;-0.974;2023-06-26T15:09:00;3;3;
44312;PMS5003;38833;51.142;-0.974;2023-06-26T15:11:33;5;5;
44312;PMS5003;38833;51.142;-0.974;2023-06-26T15:14:06;3;3;
44312;PMS5003;38833;51.142;-0.974;2023-06-26T15:16:40;3;3;
44312;PMS5003;38833;51.142;-0.974;2023-06-26T15:19:13;6;5;
44312;PMS5003;38833;51.142;-0.974;2023-06-26T15:21:46;3;3;
44312;PMS5003;38833;51.142;-0.974;2023-06-26T15:24:20;5;4;
44312;PMS5003;38833;51.142;-0.974;2023-06-26T15:26:53;3;3;
44312;PMS5003;38833;51.142;-0.974;2023-06-26T15:29:26;1;1;
44312;PMS5003;38833;51.142;-0.974;2023-06-26T15:32:00;3;3;
44312;PMS5003;38833;51.142;-0.974;2023-06-26T15:34:33;4;4;
44312;PMS5003;38833;51.142;-0.974;2023-06-26T15:37:07;3;3;
44312;PMS5003;38833;51.142;-0.974;2023-06-26T15:39:41;4;3;
44312;PMS5003;38833;51.142;-0.974;2023-06-26T15:42:14;5;5;
44312;PMS5003;38833;51.142;-0.974;2023-06-26T15:44:48;3;3;
44312;PMS5003;38833;51.142;-0.974;2023-06-26T15:47:21;4;3;
44312;PMS5003;38833;51.142;-0.974;2023-06-26T15:49:55;4;4;
44312;PMS5003;38833;51.142;-0.974;2023-06-26T15:52:28;3;3;
44312;PMS5003;38833;51.142;-0.974;2023-06-26T15:55:01;4;3;
44312;PMS5003;38833;51.142;-0.974;2023-06-26T15:57:35;4;4;
44312;PMS5003;38833;51.142;-0.974;2023-06-26T16:00:09;3;3;
44312;PMS5003;38833;51.142;-0.974;2023-06-26T16:02:42;3;3;
44312;PMS5003;38833;51.142;-0.974;2023-06-26T16:05:16;4;4;
44312;PMS5003;38833;51.142;-0.974;2023-06-26T16:07:49;2;2;
44312;PMS5003;38833;51.142;-0.974;2023-06-26T16:10:22;3;3;
44312;PMS5003;38833;51.142;-0.974;2023-06-26T16:12:56;3;3;
44312;PMS5003;38833;51.142;-0.974;2023-06-26T16:15:29;2;2;
44312;PMS5003;38833;51.142;-0.974;2023-06-26T16:18:03;2;2;
44312;PMS5003;38833;51.142;-0.974;2023-06-26T16:20:36;3;3;
44312;PMS5003;38833;51.142;-0.974;2023-06-26T16:23:09;3;3;
44312;PMS5003;38833;51.142;-0.974;2023-06-26T16:25:43;3;3;
44312;PMS5003;38833;51.142;-0.974;2023-06-26T16:28:16;3;3;
44312;PMS5003;38833;51.142;-0.974;2023-06-26T16:30:54;4;4;
44312;PMS5003;38833;51.142;-0.974;2023-06-26T16:33:33;4;4;
44312;PMS5003;38833;51.142;-0.974;2023-06-26T16:36:06;3;3;
44312;PMS5003;38833;51.142;-0.974;2023-06-26T16:38:39;3;3;
44312;PMS5003;38833;51.142;-0.974;2023-06-26T16:41:13;5;5;
44312;PMS5003;38833;51.142;-0.974;2023-06-26T16:43:46;3;3;
44312;PMS5003;38833;51.142;-0.974;2023-06-26T16:46:19;2;2;
44312;PMS5003;38833;51.142;-0.974;2023-06-26T16:48:53;5;3;
44312;PMS5003;38833;51.142;-0.974;2023-06-26T16:51:26;3;3;
44312;PMS5003;38833;51.142;-0.974;2023-06-26T16:53:59;3;3;
44312;PMS5003;38833;51.142;-0.974;2023-06-26T16:56:32;5;3;
44312;PMS5003;38833;51.142;-0.974;2023-06-26T16:59:06;4;4;
44312;PMS5003;38833;51.142;-0.974;2023-06-26T17:01:39;2;2;
44312;PMS5003;38833;51.142;-0.974;2023-06-26T17:04:13;2;2;
44312;PMS5003;38833;51.142;-0.974;2023-06-26T17:06:46;1;1;
44312;PMS5003;38833;51.142;-0.974;2023-06-26T17:09:19;2;2;
44312;PMS5003;38833;51.142;-0.974;2023-06-26T17:11:53;4;3;
44312;PMS5003;38833;51.142;-0.974;2023-06-26T17:14:26;2;2;
44312;PMS5003;38833;51.142;-0.974;2023-06-26T17:16:59;4;2;
44312;PMS5003;38833;51.142;-0.974;2023-06-26T17:19:33;3;3;